Dublin, CA

11:36 AM PDT on October 23, 2014 (GMT -0700)
KCADUBLI8 | Change Station
CLOSE
Current Station
Personal Weather Station
Location: Dublin, CA
Elevation: 338 ft
Nearby Weather Stations

Elev 338 ft 37.71 °N, 121.92 °W | Updated 1 minute ago

Partly Cloudy
Partly Cloudy
68.9 °F
Feels Like 68.9 °F
N
2.0
Wind Variable Wind from West
Gusts 2.0 mph

Today
High -- | Low -- °F
--% Chance of Precip.
Yesterday
High -- | Low -- °F
Precip. -- in
7:23 AM 6:19 PM
Waning Crescent, 0% visible
Pressure 30.06 in
Visibility 10.0 miles
Clouds Clear
Dew Point 57 °F
Humidity 66%
Rainfall 0.00 in
Snow Depth Not available.
UV 4 out of 12
Pollen 1.70 out of 12
Ozone Good
PM2.5 Good
Flu Activity Sporadic
METAR KLVK 231753Z 00000KT 10SM CLR 19/13 A3007 RMK AO2 SLP180 T01940128 10194 20128 50003

More Conditions Fewer Conditions

Pressure 30.06 in
Visibility 10.0 miles
Clouds Clear
Dew Point 57 °F
Humidity 66%
Rainfall 0.00 in
Snow Depth Not available.
UV 4 out of 12
Pollen 1.70 out of 12
Ozone Good
PM2.5 Good
Flu Activity Sporadic
METAR KLVK 231753Z 00000KT 10SM CLR 19/13 A3007 RMK AO2 SLP180 T01940128 10194 20128 50003

More Conditions Fewer Conditions

10-Day Weather Forecast

Almanac

Astronomy

Oct. 23, 2014 Rise Set
Actual Time 7:23 AM PDT 6:19 PM PDT
Civil Twilight 6:57 AM PDT 6:46 PM PDT
Nautical Twilight 6:26 AM PDT 7:16 PM PDT
Astronomical Twilight 5:56 AM PDT 7:47 PM PDT
Moon 7:09 AM PDT 6:24 PM PDT
Length of Visible Light 11h 49m
Length of Day
10h 55m
Tomorrow will be 2m 15s shorter.
Waning Crescent, 0% of the Moon is Illuminated
Today
Waning Crescent
Oct 23
New
Oct 30
First Quarter
Nov 6
Full
Nov 14
Last Quarter

Today's Extremes

State Highs State Lows

Community

WunderPhotos

Upload Photos

1,764,338 photos uploaded!

WunderBlogs® & News

Nearby

Air Quality

  Air Quality AQ Index Pollutant
Yesterday Good
OZONE
Yesterday Good
PM2.5
Current Good
PM2.5
Current Good
OZONE
Thursday Good
OZONE
Friday Good
OZONE
Saturday Good
OZONE
Sunday Good
OZONE
Monday Good
PM2.5
Tuesday Good
PM2.5

Snow Depth

Station Depth Elevation
Blue Lakes 0 in 8000 ft
Leavitt Lake 0 in 9400 ft
Rubicon #2 0 in 7500 ft
Leavitt Meadows 0 in 7200 ft
Heavenly Valley 0 in 8850 ft

Earthquake Activity

City Distance Mag. Time & Date
No recent earthquake activity has been reported nearby.
Minimum magnitude displayed is 2.5.

Coastal Water Temperatures

Place Temperature
No Stations Reporting

Nearby Weather Stations